sensor_id;sensor_type;location;lat;lon;timestamp;P1;durP1;ratioP1;P2;durP2;ratioP2
54641;SDS011;40536;53.194;5.728;2023-10-13T00:01:50;686.75;;;640.08;;
54641;SDS011;40536;53.194;5.728;2023-10-13T00:04:18;670.75;;;624.03;;
54641;SDS011;40536;53.194;5.728;2023-10-13T00:06:48;703.75;;;656.22;;
54641;SDS011;40536;53.194;5.728;2023-10-13T00:09:13;696.55;;;649.47;;
54641;SDS011;40536;53.194;5.728;2023-10-13T00:11:42;684.17;;;638.03;;
54641;SDS011;40536;53.194;5.728;2023-10-13T00:14:12;693.40;;;646.50;;
54641;SDS011;40536;53.194;5.728;2023-10-13T00:16:42;719.97;;;670.85;;
54641;SDS011;40536;53.194;5.728;2023-10-13T00:19:25;696.38;;;648.00;;
54641;SDS011;40536;53.194;5.728;2023-10-13T00:22:11;729.20;;;679.10;;
54641;SDS011;40536;53.194;5.728;2023-10-13T00:24:38;730.47;;;680.28;;
54641;SDS011;40536;53.194;5.728;2023-10-13T00:27:17;749.13;;;697.95;;
54641;SDS011;40536;53.194;5.728;2023-10-13T00:29:58;771.25;;;718.17;;
54641;SDS011;40536;53.194;5.728;2023-10-13T00:32:42;763.95;;;712.70;;
54641;SDS011;40536;53.194;5.728;2023-10-13T00:35:10;780.33;;;726.05;;
54641;SDS011;40536;53.194;5.728;2023-10-13T00:37:50;793.88;;;740.15;;
54641;SDS011;40536;53.194;5.728;2023-10-13T00:40:22;780.95;;;728.22;;
54641;SDS011;40536;53.194;5.728;2023-10-13T00:42:55;829.83;;;771.00;;
54641;SDS011;40536;53.194;5.728;2023-10-13T00:45:31;815.28;;;758.85;;
54641;SDS011;40536;53.194;5.728;2023-10-13T00:47:59;809.72;;;754.33;;
54641;SDS011;40536;53.194;5.728;2023-10-13T00:50:26;809.92;;;753.15;;
54641;SDS011;40536;53.194;5.728;2023-10-13T00:52:54;811.45;;;754.83;;
54641;SDS011;40536;53.194;5.728;2023-10-13T00:55:21;767.08;;;716.30;;
54641;SDS011;40536;53.194;5.728;2023-10-13T00:57:57;785.00;;;733.17;;
54641;SDS011;40536;53.194;5.728;2023-10-13T01:00:27;731.38;;;682.38;;
54641;SDS011;40536;53.194;5.728;2023-10-13T01:02:54;779.28;;;726.50;;
54641;SDS011;40536;53.194;5.728;2023-10-13T01:05:21;729.63;;;679.45;;
54641;SDS011;40536;53.194;5.728;2023-10-13T01:07:51;727.03;;;679.30;;
54641;SDS011;40536;53.194;5.728;2023-10-13T01:10:21;738.00;;;690.03;;
54641;SDS011;40536;53.194;5.728;2023-10-13T01:12:55;720.55;;;674.58;;
54641;SDS011;40536;53.194;5.728;2023-10-13T01:15:21;767.97;;;718.67;;
54641;SDS011;40536;53.194;5.728;2023-10-13T01:17:47;736.80;;;688.42;;
54641;SDS011;40536;53.194;5.728;2023-10-13T01:20:14;780.75;;;729.90;;
54641;SDS011;40536;53.194;5.728;2023-10-13T01:25:22;721.80;;;675.63;;
54641;SDS011;40536;53.194;5.728;2023-10-13T01:30:19;684.10;;;640.53;;
54641;SDS011;40536;53.194;5.728;2023-10-13T01:32:50;744.58;;;696.95;;
54641;SDS011;40536;53.194;5.728;2023-10-13T01:35:17;761.22;;;713.15;;
54641;SDS011;40536;53.194;5.728;2023-10-13T01:37:51;775.30;;;724.70;;
54641;SDS011;40536;53.194;5.728;2023-10-13T01:40:17;766.50;;;717.63;;
54641;SDS011;40536;53.194;5.728;2023-10-13T01:42:46;760.97;;;712.30;;
54641;SDS011;40536;53.194;5.728;2023-10-13T01:45:12;765.35;;;717.45;;
54641;SDS011;40536;53.194;5.728;2023-10-13T01:47:39;742.10;;;696.00;;
54641;SDS011;40536;53.194;5.728;2023-10-13T01:50:06;732.72;;;686.40;;
54641;SDS011;40536;53.194;5.728;2023-10-13T01:52:40;721.08;;;676.20;;
54641;SDS011;40536;53.194;5.728;2023-10-13T01:55:07;724.60;;;680.63;;
54641;SDS011;40536;53.194;5.728;2023-10-13T01:57:36;678.22;;;636.60;;
54641;SDS011;40536;53.194;5.728;2023-10-13T02:00:02;716.85;;;674.45;;
54641;SDS011;40536;53.194;5.728;2023-10-13T02:02:36;705.28;;;662.22;;
54641;SDS011;40536;53.194;5.728;2023-10-13T02:05:09;678.60;;;637.33;;
54641;SDS011;40536;53.194;5.728;2023-10-13T02:07:35;733.17;;;688.10;;
54641;SDS011;40536;53.194;5.728;2023-10-13T02:10:05;676.97;;;636.13;;
54641;SDS011;40536;53.194;5.728;2023-10-13T02:12:31;710.15;;;667.17;;
54641;SDS011;40536;53.194;5.728;2023-10-13T02:15:09;663.78;;;623.83;;
54641;SDS011;40536;53.194;5.728;2023-10-13T02:17:46;691.00;;;649.80;;
54641;SDS011;40536;53.194;5.728;2023-10-13T02:20:16;670.67;;;630.80;;
54641;SDS011;40536;53.194;5.728;2023-10-13T02:22:55;667.03;;;627.22;;
54641;SDS011;40536;53.194;5.728;2023-10-13T02:25:21;703.53;;;661.50;;
54641;SDS011;40536;53.194;5.728;2023-10-13T02:28:05;647.72;;;608.97;;
54641;SDS011;40536;53.194;5.728;2023-10-13T02:30:41;700.10;;;657.00;;
54641;SDS011;40536;53.194;5.728;2023-10-13T02:33:13;658.50;;;619.20;;
54641;SDS011;40536;53.194;5.728;2023-10-13T02:35:40;669.63;;;629.92;;
54641;SDS011;40536;53.194;5.728;2023-10-13T02:38:21;649.20;;;610.80;;
54641;SDS011;40536;53.194;5.728;2023-10-13T02:40:53;711.42;;;667.95;;
54641;SDS011;40536;53.194;5.728;2023-10-13T02:43:21;650.72;;;611.92;;
54641;SDS011;40536;53.194;5.728;2023-10-13T02:45:54;745.67;;;700.15;;
54641;SDS011;40536;53.194;5.728;2023-10-13T02:48:26;660.30;;;620.95;;
54641;SDS011;40536;53.194;5.728;2023-10-13T02:51:03;640.30;;;601.83;;
54641;SDS011;40536;53.194;5.728;2023-10-13T02:53:41;646.80;;;608.00;;
54641;SDS011;40536;53.194;5.728;2023-10-13T02:56:07;647.15;;;607.92;;
54641;SDS011;40536;53.194;5.728;2023-10-13T02:58:33;672.13;;;631.35;;
54641;SDS011;40536;53.194;5.728;2023-10-13T03:01:07;677.15;;;636.22;;
54641;SDS011;40536;53.194;5.728;2023-10-13T03:03:43;666.97;;;626.30;;
54641;SDS011;40536;53.194;5.728;2023-10-13T03:06:23;672.75;;;631.65;;
54641;SDS011;40536;53.194;5.728;2023-10-13T03:08:57;683.13;;;641.13;;
54641;SDS011;40536;53.194;5.728;2023-10-13T03:11:43;663.83;;;622.47;;
54641;SDS011;40536;53.194;5.728;2023-10-13T03:14:19;694.53;;;651.33;;
54641;SDS011;40536;53.194;5.728;2023-10-13T03:16:56;693.10;;;648.53;;
54641;SDS011;40536;53.194;5.728;2023-10-13T03:19:27;689.13;;;645.75;;
54641;SDS011;40536;53.194;5.728;2023-10-13T03:21:58;695.95;;;651.92;;
54641;SDS011;40536;53.194;5.728;2023-10-13T03:24:34;703.47;;;659.05;;
54641;SDS011;40536;53.194;5.728;2023-10-13T03:27:02;720.78;;;675.35;;
54641;SDS011;40536;53.194;5.728;2023-10-13T03:29:35;755.17;;;706.65;;
54641;SDS011;40536;53.194;5.728;2023-10-13T03:32:02;729.92;;;683.40;;
54641;SDS011;40536;53.194;5.728;2023-10-13T03:34:32;782.67;;;730.63;;
54641;SDS011;40536;53.194;5.728;2023-10-13T03:36:59;765.75;;;716.00;;
54641;SDS011;40536;53.194;5.728;2023-10-13T03:39:35;708.35;;;664.08;;
54641;SDS011;40536;53.194;5.728;2023-10-13T03:42:01;699.95;;;655.13;;
54641;SDS011;40536;53.194;5.728;2023-10-13T03:44:30;719.33;;;673.72;;
54641;SDS011;40536;53.194;5.728;2023-10-13T03:46:56;710.70;;;666.08;;
54641;SDS011;40536;53.194;5.728;2023-10-13T03:49:22;741.10;;;693.85;;
54641;SDS011;40536;53.194;5.728;2023-10-13T03:51:50;775.55;;;726.05;;
54641;SDS011;40536;53.194;5.728;2023-10-13T03:54:19;710.72;;;664.97;;
54641;SDS011;40536;53.194;5.728;2023-10-13T03:56:45;781.25;;;729.78;;
54641;SDS011;40536;53.194;5.728;2023-10-13T03:59:11;672.08;;;630.60;;
54641;SDS011;40536;53.194;5.728;2023-10-13T04:01:40;662.03;;;621.63;;
54641;SDS011;40536;53.194;5.728;2023-10-13T04:04:23;636.47;;;597.40;;
54641;SDS011;40536;53.194;5.728;2023-10-13T04:07:14;693.85;;;649.47;;
54641;SDS011;40536;53.194;5.728;2023-10-13T04:09:59;675.80;;;634.40;;
54641;SDS011;40536;53.194;5.728;2023-10-13T04:12:44;669.42;;;627.17;;
54641;SDS011;40536;53.194;5.728;2023-10-13T04:15:28;682.45;;;640.10;;
54641;SDS011;40536;53.194;5.728;2023-10-13T04:18:04;660.88;;;620.28;;
54641;SDS011;40536;53.194;5.728;2023-10-13T04:20:40;657.95;;;617.70;;
54641;SDS011;40536;53.194;5.728;2023-10-13T04:23:11;694.65;;;651.97;;
54641;SDS011;40536;53.194;5.728;2023-10-13T04:25:44;678.90;;;637.88;;
54641;SDS011;40536;53.194;5.728;2023-10-13T04:28:10;702.55;;;659.88;;
54641;SDS011;40536;53.194;5.728;2023-10-13T04:30:41;688.08;;;645.72;;
54641;SDS011;40536;53.194;5.728;2023-10-13T04:33:25;722.40;;;677.97;;
54641;SDS011;40536;53.194;5.728;2023-10-13T04:36:12;698.60;;;655.17;;
54641;SDS011;40536;53.194;5.728;2023-10-13T04:38:49;708.45;;;665.10;;
54641;SDS011;40536;53.194;5.728;2023-10-13T04:41:29;752.33;;;705.10;;
54641;SDS011;40536;53.194;5.728;2023-10-13T04:44:14;737.38;;;691.67;;
54641;SDS011;40536;53.194;5.728;2023-10-13T04:46:56;741.35;;;695.58;;
54641;SDS011;40536;53.194;5.728;2023-10-13T04:49:29;745.58;;;698.45;;
54641;SDS011;40536;53.194;5.728;2023-10-13T04:52:05;734.20;;;687.42;;
54641;SDS011;40536;53.194;5.728;2023-10-13T04:54:34;734.70;;;687.70;;
54641;SDS011;40536;53.194;5.728;2023-10-13T04:57:10;768.03;;;719.28;;
54641;SDS011;40536;53.194;5.728;2023-10-13T04:59:51;757.58;;;710.10;;
54641;SDS011;40536;53.194;5.728;2023-10-13T05:02:36;710.28;;;665.30;;
54641;SDS011;40536;53.194;5.728;2023-10-13T05:05:07;737.42;;;692.13;;
54641;SDS011;40536;53.194;5.728;2023-10-13T05:07:55;764.20;;;717.03;;
54641;SDS011;40536;53.194;5.728;2023-10-13T05:10:39;840.92;;;780.38;;
54641;SDS011;40536;53.194;5.728;2023-10-13T05:13:24;794.10;;;738.10;;
54641;SDS011;40536;53.194;5.728;2023-10-13T05:16:08;729.53;;;683.70;;
54641;SDS011;40536;53.194;5.728;2023-10-13T05:18:53;673.72;;;631.85;;
54641;SDS011;40536;53.194;5.728;2023-10-13T05:21:37;684.90;;;643.30;;
54641;SDS011;40536;53.194;5.728;2023-10-13T05:24:21;672.20;;;631.50;;
54641;SDS011;40536;53.194;5.728;2023-10-13T05:27:07;687.58;;;645.13;;
54641;SDS011;40536;53.194;5.728;2023-10-13T05:29:51;662.53;;;620.78;;
54641;SDS011;40536;53.194;5.728;2023-10-13T05:32:35;813.22;;;753.88;;
54641;SDS011;40536;53.194;5.728;2023-10-13T05:35:20;783.53;;;733.38;;
54641;SDS011;40536;53.194;5.728;2023-10-13T05:38:05;786.45;;;735.25;;
54641;SDS011;40536;53.194;5.728;2023-10-13T05:40:59;699.72;;;655.22;;
54641;SDS011;40536;53.194;5.728;2023-10-13T05:43:44;763.17;;;714.03;;
54641;SDS011;40536;53.194;5.728;2023-10-13T05:46:29;652.92;;;614.03;;
54641;SDS011;40536;53.194;5.728;2023-10-13T05:49:02;670.95;;;631.58;;
54641;SDS011;40536;53.194;5.728;2023-10-13T05:51:31;613.00;;;577.20;;
54641;SDS011;40536;53.194;5.728;2023-10-13T05:53:57;724.92;;;682.33;;
54641;SDS011;40536;53.194;5.728;2023-10-13T05:56:41;629.95;;;592.95;;
54641;SDS011;40536;53.194;5.728;2023-10-13T05:59:26;617.85;;;582.85;;
54641;SDS011;40536;53.194;5.728;2023-10-13T06:02:12;600.80;;;567.88;;
54641;SDS011;40536;53.194;5.728;2023-10-13T06:04:56;686.08;;;645.38;;
54641;SDS011;40536;53.194;5.728;2023-10-13T06:07:41;690.35;;;648.70;;
54641;SDS011;40536;53.194;5.728;2023-10-13T06:10:25;769.08;;;720.83;;
54641;SDS011;40536;53.194;5.728;2023-10-13T06:13:12;689.83;;;647.60;;
54641;SDS011;40536;53.194;5.728;2023-10-13T06:15:56;770.92;;;720.90;;
54641;SDS011;40536;53.194;5.728;2023-10-13T06:18:40;777.83;;;726.83;;
54641;SDS011;40536;53.194;5.728;2023-10-13T06:21:24;837.78;;;774.95;;
54641;SDS011;40536;53.194;5.728;2023-10-13T06:24:09;812.05;;;752.40;;
54641;SDS011;40536;53.194;5.728;2023-10-13T06:26:53;855.80;;;791.50;;
54641;SDS011;40536;53.194;5.728;2023-10-13T06:29:37;894.90;;;823.35;;
54641;SDS011;40536;53.194;5.728;2023-10-13T06:32:03;959.15;;;878.28;;
54641;SDS011;40536;53.194;5.728;2023-10-13T06:34:35;942.17;;;852.57;;
54641;SDS011;40536;53.194;5.728;2023-10-13T06:37:11;918.55;;;836.67;;
54641;SDS011;40536;53.194;5.728;2023-10-13T06:39:56;896.42;;;823.60;;
54641;SDS011;40536;53.194;5.728;2023-10-13T06:42:35;880.10;;;816.22;;
54641;SDS011;40536;53.194;5.728;2023-10-13T06:45:07;791.05;;;741.03;;
54641;SDS011;40536;53.194;5.728;2023-10-13T06:47:36;847.40;;;790.17;;
54641;SDS011;40536;53.194;5.728;2023-10-13T06:50:17;780.30;;;731.85;;
54641;SDS011;40536;53.194;5.728;2023-10-13T06:52:49;833.13;;;779.42;;
54641;SDS011;40536;53.194;5.728;2023-10-13T06:55:17;831.33;;;771.60;;
54641;SDS011;40536;53.194;5.728;2023-10-13T06:57:48;783.63;;;736.15;;
54641;SDS011;40536;53.194;5.728;2023-10-13T07:00:15;817.08;;;764.30;;
54641;SDS011;40536;53.194;5.728;2023-10-13T07:03:14;797.92;;;745.72;;
54641;SDS011;40536;53.194;5.728;2023-10-13T07:05:43;871.85;;;807.95;;
54641;SDS011;40536;53.194;5.728;2023-10-13T07:08:09;824.30;;;767.55;;
54641;SDS011;40536;53.194;5.728;2023-10-13T07:10:46;829.33;;;774.05;;
54641;SDS011;40536;53.194;5.728;2023-10-13T07:13:18;739.95;;;694.28;;
54641;SDS011;40536;53.194;5.728;2023-10-13T07:15:47;743.33;;;697.15;;
54641;SDS011;40536;53.194;5.728;2023-10-13T07:18:13;758.03;;;705.85;;
54641;SDS011;40536;53.194;5.728;2023-10-13T07:20:42;762.72;;;713.67;;
54641;SDS011;40536;53.194;5.728;2023-10-13T07:23:13;652.50;;;612.40;;
54641;SDS011;40536;53.194;5.728;2023-10-13T07:25:43;662.45;;;622.45;;
54641;SDS011;40536;53.194;5.728;2023-10-13T07:28:20;705.75;;;662.75;;
54641;SDS011;40536;53.194;5.728;2023-10-13T07:30:46;682.63;;;641.47;;
54641;SDS011;40536;53.194;5.728;2023-10-13T07:33:34;641.97;;;604.92;;
54641;SDS011;40536;53.194;5.728;2023-10-13T07:36:05;651.65;;;613.05;;
54641;SDS011;40536;53.194;5.728;2023-10-13T07:38:39;660.03;;;621.15;;
54641;SDS011;40536;53.194;5.728;2023-10-13T07:41:07;693.28;;;651.83;;
54641;SDS011;40536;53.194;5.728;2023-10-13T07:43:33;659.30;;;620.22;;
54641;SDS011;40536;53.194;5.728;2023-10-13T07:46:02;685.03;;;642.83;;
54641;SDS011;40536;53.194;5.728;2023-10-13T07:48:35;626.03;;;589.72;;
54641;SDS011;40536;53.194;5.728;2023-10-13T07:51:04;621.92;;;585.78;;
54641;SDS011;40536;53.194;5.728;2023-10-13T07:53:36;661.95;;;622.92;;
54641;SDS011;40536;53.194;5.728;2023-10-13T07:56:05;633.05;;;596.03;;
54641;SDS011;40536;53.194;5.728;2023-10-13T07:58:34;627.40;;;591.53;;
54641;SDS011;40536;53.194;5.728;2023-10-13T08:01:12;683.60;;;642.13;;
54641;SDS011;40536;53.194;5.728;2023-10-13T08:03:42;715.15;;;670.75;;
54641;SDS011;40536;53.194;5.728;2023-10-13T08:06:09;686.83;;;644.78;;
54641;SDS011;40536;53.194;5.728;2023-10-13T08:08:36;686.72;;;645.30;;
54641;SDS011;40536;53.194;5.728;2023-10-13T08:16:25;730.58;;;685.28;;
54641;SDS011;40536;53.194;5.728;2023-10-13T08:19:13;742.78;;;695.28;;
54641;SDS011;40536;53.194;5.728;2023-10-13T08:21:52;699.70;;;656.33;;
54641;SDS011;40536;53.194;5.728;2023-10-13T08:24:39;763.55;;;714.38;;
54641;SDS011;40536;53.194;5.728;2023-10-13T08:27:06;851.45;;;788.78;;
54641;SDS011;40536;53.194;5.728;2023-10-13T08:29:51;791.90;;;738.72;;
54641;SDS011;40536;53.194;5.728;2023-10-13T08:32:19;769.70;;;718.10;;
54641;SDS011;40536;53.194;5.728;2023-10-13T08:34:52;741.67;;;697.20;;
54641;SDS011;40536;53.194;5.728;2023-10-13T08:37:18;726.90;;;682.25;;
54641;SDS011;40536;53.194;5.728;2023-10-13T08:39:54;757.33;;;709.50;;
54641;SDS011;40536;53.194;5.728;2023-10-13T08:42:31;879.13;;;816.97;;
54641;SDS011;40536;53.194;5.728;2023-10-13T08:45:07;797.97;;;745.58;;
54641;SDS011;40536;53.194;5.728;2023-10-13T08:47:52;797.53;;;743.00;;
54641;SDS011;40536;53.194;5.728;2023-10-13T08:55:58;771.97;;;720.10;;
54641;SDS011;40536;53.194;5.728;2023-10-13T08:58:40;827.22;;;763.92;;
54641;SDS011;40536;53.194;5.728;2023-10-13T09:01:19;843.67;;;778.13;;
54641;SDS011;40536;53.194;5.728;2023-10-13T09:04:03;839.78;;;777.22;;
54641;SDS011;40536;53.194;5.728;2023-10-13T09:06:52;802.85;;;749.80;;
54641;SDS011;40536;53.194;5.728;2023-10-13T09:09:33;878.20;;;796.65;;
54641;SDS011;40536;53.194;5.728;2023-10-13T09:12:28;762.20;;;709.05;;
54641;SDS011;40536;53.194;5.728;2023-10-13T09:14:58;636.85;;;600.30;;
54641;SDS011;40536;53.194;5.728;2023-10-13T09:17:31;633.85;;;593.50;;
54641;SDS011;40536;53.194;5.728;2023-10-13T09:22:51;497.17;;;471.52;;
54641;SDS011;40536;53.194;5.728;2023-10-13T09:25:39;445.30;;;420.30;;
54641;SDS011;40536;53.194;5.728;2023-10-13T09:28:18;327.17;;;310.77;;
54641;SDS011;40536;53.194;5.728;2023-10-13T09:30:50;313.50;;;298.38;;
54641;SDS011;40536;53.194;5.728;2023-10-13T09:33:24;332.02;;;315.15;;
54641;SDS011;40536;53.194;5.728;2023-10-13T09:36:12;252.00;;;240.05;;
54641;SDS011;40536;53.194;5.728;2023-10-13T09:38:38;247.52;;;235.27;;
54641;SDS011;40536;53.194;5.728;2023-10-13T09:41:06;275.48;;;261.73;;
54641;SDS011;40536;53.194;5.728;2023-10-13T09:43:55;240.70;;;229.30;;
54641;SDS011;40536;53.194;5.728;2023-10-13T09:46:23;239.07;;;227.45;;
54641;SDS011;40536;53.194;5.728;2023-10-13T09:49:14;248.38;;;234.88;;
54641;SDS011;40536;53.194;5.728;2023-10-13T09:51:48;248.65;;;235.73;;
54641;SDS011;40536;53.194;5.728;2023-10-13T09:54:18;359.50;;;337.95;;
54641;SDS011;40536;53.194;5.728;2023-10-13T09:56:50;381.50;;;357.63;;
54641;SDS011;40536;53.194;5.728;2023-10-13T09:59:22;248.60;;;236.15;;
54641;SDS011;40536;53.194;5.728;2023-10-13T10:02:17;338.17;;;316.92;;
54641;SDS011;40536;53.194;5.728;2023-10-13T10:04:54;278.27;;;263.10;;
54641;SDS011;40536;53.194;5.728;2023-10-13T10:07:41;376.83;;;352.83;;
54641;SDS011;40536;53.194;5.728;2023-10-13T10:10:09;271.85;;;258.08;;
54641;SDS011;40536;53.194;5.728;2023-10-13T10:12:41;343.88;;;324.00;;
54641;SDS011;40536;53.194;5.728;2023-10-13T10:15:28;303.38;;;286.25;;
54641;SDS011;40536;53.194;5.728;2023-10-13T10:18:01;267.27;;;252.52;;
54641;SDS011;40536;53.194;5.728;2023-10-13T10:20:34;312.15;;;294.65;;
54641;SDS011;40536;53.194;5.728;2023-10-13T10:23:09;231.30;;;218.75;;
54641;SDS011;40536;53.194;5.728;2023-10-13T10:25:43;269.30;;;254.15;;
54641;SDS011;40536;53.194;5.728;2023-10-13T10:28:11;235.52;;;223.57;;
54641;SDS011;40536;53.194;5.728;2023-10-13T10:30:41;252.88;;;238.65;;
54641;SDS011;40536;53.194;5.728;2023-10-13T10:33:09;274.10;;;259.73;;
54641;SDS011;40536;53.194;5.728;2023-10-13T10:35:41;269.95;;;254.38;;
54641;SDS011;40536;53.194;5.728;2023-10-13T10:41:10;96.00;;;91.05;;
54641;SDS011;40536;53.194;5.728;2023-10-13T10:43:38;279.27;;;262.48;;
54641;SDS011;40536;53.194;5.728;2023-10-13T10:46:08;184.75;;;173.27;;
54641;SDS011;40536;53.194;5.728;2023-10-13T10:48:37;128.77;;;122.13;;
54641;SDS011;40536;53.194;5.728;2023-10-13T10:51:08;161.82;;;153.32;;
54641;SDS011;40536;53.194;5.728;2023-10-13T10:53:50;166.55;;;157.52;;
54641;SDS011;40536;53.194;5.728;2023-10-13T10:56:17;152.52;;;144.70;;
54641;SDS011;40536;53.194;5.728;2023-10-13T10:59:02;211.55;;;200.02;;
54641;SDS011;40536;53.194;5.728;2023-10-13T11:01:45;222.60;;;210.55;;
54641;SDS011;40536;53.194;5.728;2023-10-13T11:06:58;112.95;;;106.97;;
54641;SDS011;40536;53.194;5.728;2023-10-13T11:10:06;126.90;;;120.05;;
54641;SDS011;40536;53.194;5.728;2023-10-13T11:12:58;135.45;;;128.90;;
54641;SDS011;40536;53.194;5.728;2023-10-13T11:18:10;140.93;;;133.35;;
54641;SDS011;40536;53.194;5.728;2023-10-13T11:20:42;161.40;;;152.07;;
54641;SDS011;40536;53.194;5.728;2023-10-13T11:23:11;260.65;;;245.68;;
54641;SDS011;40536;53.194;5.728;2023-10-13T11:25:40;196.88;;;184.73;;
54641;SDS011;40536;53.194;5.728;2023-10-13T11:30:45;181.77;;;171.48;;
54641;SDS011;40536;53.194;5.728;2023-10-13T11:33:15;169.98;;;161.25;;
54641;SDS011;40536;53.194;5.728;2023-10-13T11:43:13;225.18;;;213.48;;
54641;SDS011;40536;53.194;5.728;2023-10-13T12:06:00;303.25;;;288.30;;
54641;SDS011;40536;53.194;5.728;2023-10-13T12:08:56;400.30;;;380.13;;
54641;SDS011;40536;53.194;5.728;2023-10-13T12:11:37;397.15;;;377.20;;
54641;SDS011;40536;53.194;5.728;2023-10-13T12:14:10;439.25;;;415.85;;
54641;SDS011;40536;53.194;5.728;2023-10-13T12:16:53;484.35;;;458.00;;
54641;SDS011;40536;53.194;5.728;2023-10-13T12:19:19;444.52;;;419.60;;
54641;SDS011;40536;53.194;5.728;2023-10-13T12:21:52;490.48;;;463.48;;
54641;SDS011;40536;53.194;5.728;2023-10-13T12:24:32;447.08;;;422.15;;
54641;SDS011;40536;53.194;5.728;2023-10-13T12:30:20;465.20;;;439.92;;
54641;SDS011;40536;53.194;5.728;2023-10-13T12:33:51;480.83;;;455.90;;
54641;SDS011;40536;53.194;5.728;2023-10-13T12:44:25;492.23;;;466.10;;
54641;SDS011;40536;53.194;5.728;2023-10-13T12:47:10;554.95;;;525.42;;
54641;SDS011;40536;53.194;5.728;2023-10-13T12:49:54;490.60;;;464.88;;
54641;SDS011;40536;53.194;5.728;2023-10-13T12:52:23;497.70;;;471.10;;
54641;SDS011;40536;53.194;5.728;2023-10-13T12:54:57;452.00;;;427.80;;
54641;SDS011;40536;53.194;5.728;2023-10-13T12:57:32;369.23;;;350.55;;
54641;SDS011;40536;53.194;5.728;2023-10-13T13:00:01;413.38;;;392.08;;
54641;SDS011;40536;53.194;5.728;2023-10-13T13:02:50;531.42;;;501.88;;
54641;SDS011;40536;53.194;5.728;2023-10-13T13:05:20;474.10;;;448.75;;
54641;SDS011;40536;53.194;5.728;2023-10-13T13:07:53;554.47;;;522.92;;
54641;SDS011;40536;53.194;5.728;2023-10-13T13:18:00;576.40;;;543.95;;
54641;SDS011;40536;53.194;5.728;2023-10-13T13:20:44;630.33;;;594.13;;
54641;SDS011;40536;53.194;5.728;2023-10-13T13:23:18;715.40;;;670.35;;
54641;SDS011;40536;53.194;5.728;2023-10-13T13:25:45;781.45;;;726.90;;
54641;SDS011;40536;53.194;5.728;2023-10-13T13:28:11;663.78;;;623.80;;
54641;SDS011;40536;53.194;5.728;2023-10-13T13:30:40;761.92;;;711.33;;
54641;SDS011;40536;53.194;5.728;2023-10-13T13:33:06;666.15;;;626.70;;
54641;SDS011;40536;53.194;5.728;2023-10-13T13:35:58;708.63;;;665.53;;
54641;SDS011;40536;53.194;5.728;2023-10-13T13:38:26;720.03;;;676.75;;
54641;SDS011;40536;53.194;5.728;2023-10-13T13:41:00;676.90;;;635.47;;
54641;SDS011;40536;53.194;5.728;2023-10-13T13:43:53;636.58;;;599.35;;
54641;SDS011;40536;53.194;5.728;2023-10-13T13:46:24;699.45;;;648.28;;
54641;SDS011;40536;53.194;5.728;2023-10-13T13:48:54;675.10;;;632.63;;
54641;SDS011;40536;53.194;5.728;2023-10-13T13:51:24;667.10;;;625.90;;
54641;SDS011;40536;53.194;5.728;2023-10-13T13:53:54;630.38;;;592.65;;
54641;SDS011;40536;53.194;5.728;2023-10-13T13:56:21;654.25;;;615.78;;
54641;SDS011;40536;53.194;5.728;2023-10-13T13:58:50;568.20;;;536.10;;
54641;SDS011;40536;53.194;5.728;2023-10-13T14:01:17;603.22;;;567.58;;
54641;SDS011;40536;53.194;5.728;2023-10-13T14:03:55;481.33;;;455.25;;
54641;SDS011;40536;53.194;5.728;2023-10-13T14:06:27;504.92;;;475.85;;
54641;SDS011;40536;53.194;5.728;2023-10-13T14:08:54;474.65;;;447.83;;
54641;SDS011;40536;53.194;5.728;2023-10-13T14:11:24;547.30;;;513.38;;
54641;SDS011;40536;53.194;5.728;2023-10-13T14:14:06;451.90;;;427.15;;
54641;SDS011;40536;53.194;5.728;2023-10-13T14:19:36;452.70;;;427.55;;
54641;SDS011;40536;53.194;5.728;2023-10-13T14:22:19;479.20;;;451.30;;
54641;SDS011;40536;53.194;5.728;2023-10-13T14:24:50;420.02;;;397.77;;
54641;SDS011;40536;53.194;5.728;2023-10-13T14:27:42;336.20;;;318.08;;
54641;SDS011;40536;53.194;5.728;2023-10-13T14:30:08;332.80;;;315.60;;
54641;SDS011;40536;53.194;5.728;2023-10-13T14:32:34;417.63;;;391.55;;
54641;SDS011;40536;53.194;5.728;2023-10-13T14:35:08;375.35;;;355.60;;
54641;SDS011;40536;53.194;5.728;2023-10-13T14:37:40;295.02;;;280.00;;
54641;SDS011;40536;53.194;5.728;2023-10-13T14:40:09;428.92;;;402.60;;
54641;SDS011;40536;53.194;5.728;2023-10-13T14:42:40;440.40;;;414.10;;
54641;SDS011;40536;53.194;5.728;2023-10-13T14:45:08;424.15;;;399.95;;
54641;SDS011;40536;53.194;5.728;2023-10-13T14:47:59;510.70;;;477.48;;
54641;SDS011;40536;53.194;5.728;2023-10-13T14:50:39;574.58;;;534.53;;
54641;SDS011;40536;53.194;5.728;2023-10-13T14:53:08;613.78;;;553.78;;
54641;SDS011;40536;53.194;5.728;2023-10-13T14:58:25;420.23;;;397.50;;
54641;SDS011;40536;53.194;5.728;2023-10-13T15:01:33;492.85;;;462.83;;
54641;SDS011;40536;53.194;5.728;2023-10-13T15:04:23;585.65;;;545.53;;
54641;SDS011;40536;53.194;5.728;2023-10-13T15:06:50;443.55;;;418.90;;
54641;SDS011;40536;53.194;5.728;2023-10-13T15:09:15;619.10;;;576.75;;
54641;SDS011;40536;53.194;5.728;2023-10-13T15:17:21;430.60;;;406.58;;
54641;SDS011;40536;53.194;5.728;2023-10-13T15:19:55;497.65;;;467.52;;
54641;SDS011;40536;53.194;5.728;2023-10-13T15:22:24;565.70;;;527.65;;
54641;SDS011;40536;53.194;5.728;2023-10-13T15:24:52;393.27;;;371.67;;
54641;SDS011;40536;53.194;5.728;2023-10-13T15:27:36;389.73;;;368.48;;
54641;SDS011;40536;53.194;5.728;2023-10-13T16:31:05;350.67;;;332.10;;
54641;SDS011;40536;53.194;5.728;2023-10-13T20:39:30;313.77;;;296.65;;
54641;SDS011;40536;53.194;5.728;2023-10-13T20:41:57;225.88;;;214.38;;
54641;SDS011;40536;53.194;5.728;2023-10-13T20:44:29;250.65;;;238.07;;
54641;SDS011;40536;53.194;5.728;2023-10-13T20:46:55;215.68;;;203.80;;
54641;SDS011;40536;53.194;5.728;2023-10-13T20:49:27;187.70;;;177.98;;
54641;SDS011;40536;53.194;5.728;2023-10-13T20:51:56;230.75;;;219.35;;
54641;SDS011;40536;53.194;5.728;2023-10-13T20:54:24;319.02;;;301.02;;
54641;SDS011;40536;53.194;5.728;2023-10-13T20:56:50;266.30;;;253.60;;
54641;SDS011;40536;53.194;5.728;2023-10-13T20:59:19;234.93;;;224.95;;
54641;SDS011;40536;53.194;5.728;2023-10-13T21:01:45;251.90;;;239.60;;
54641;SDS011;40536;53.194;5.728;2023-10-13T21:04:11;300.15;;;285.23;;
54641;SDS011;40536;53.194;5.728;2023-10-13T21:06:37;282.83;;;269.75;;
54641;SDS011;40536;53.194;5.728;2023-10-13T21:09:05;324.98;;;309.90;;
54641;SDS011;40536;53.194;5.728;2023-10-13T21:11:38;424.77;;;403.10;;
54641;SDS011;40536;53.194;5.728;2023-10-13T21:14:05;485.08;;;458.35;;